Orto / Ocaso: 05:14 / 19:31 UTC (Datos para LEAX 22-07-2019)

[fuente: ADDS]

METAR:


LEMG 221030Z 14011KT 110V170 9999 FEW020 28/22 Q1019 NOSIG =
TAF LEMG 220500Z 2206/2306 VRB03KT 9999 FEW025 TX31/2213Z TN23/2206Z BECMG 2207/2210 15009KT BECMG 2220/2223 29006KT PROB40 TEMPO 2301/2304 VRB03KT LEGR 221030Z VRB01KT CAVOK 34/12 Q1020 =
TAF LEGR 220800Z 2209/2309 VRB03KT 9999 FEW075 TX39/2215Z TN21/2305Z BECMG 2212/2214 16016KT PROB40 TEMPO 2215/2219 16018G28KT BECMG 2222/2224 VRB03KT LEZL 221030Z 31004KT CAVOK 32/18 Q1017 NOSIG =
TAF LEZL 220800Z 2209/2309 VRB03KT CAVOK TX38/2216Z TN23/2305Z BECMG 2216/2219 21011KT BECMG 2300/2302 VRB03KT LEAM 221030Z 08022KT 050V110 CAVOK 35/13 Q1018 =
TAF AMD LEAM 221018Z 2210/2309 08022KT CAVOK TX37/2214Z TN25/2305Z PROB40 TEMPO 2210/2219 06024G34KT BECMG 2219/2222 33009KT BECMG 2307/2309 08018KT LEBA 221030Z 09002KT CAVOK 33/17 Q1017 =
TAF LEBA 220800Z 2209/2218 VRB02KT CAVOK BECMG 2216/2218 26010KT LEJR 221030Z VRB01KT CAVOK 32/19 Q1017 =
TAF LEJR 220500Z 2206/2306 06006KT CAVOK TX38/2214Z TN22/2206Z BECMG 2210/2213 16010KT BECMG 2215/2217 25010KT BECMG 2218/2221 VRB02KT GEML 221030Z 07008KT 040V110 6000 SCT006 SCT010 BKN020 26/23 Q1018 =
TAF GEML 220800Z 2209/2309 05006KT 9999 SCT020 TX28/2215Z TN24/2305Z TEMPO 2209/2213 SCT008 BKN012 LXGB 221022Z 10014KT 9999 SCT018 26/22 Q1019 BECMG FEW018 =
TAF LXGB 220721Z 2209/2218 08012KT 9999 FEW012 TEMPO 2209/2212 BKN012 PROB30 TEMPO 2209/2210 6000 HZ BKN006 TEMPO 2215/2218 BKN012

TAFOR:


TAF LEMG 220500Z 2206/2306 VRB03KT 9999 FEW025 TX31/2213Z TN23/2206Z BECMG 2207/2210 15009KT BECMG 2220/2223 29006KT PROB40 TEMPO 2301/2304 VRB03KT =
TAF LEGR 220800Z 2209/2309 VRB03KT 9999 FEW075 TX39/2215Z TN21/2305Z BECMG 2212/2214 16016KT PROB40 TEMPO 2215/2219 16018G28KT BECMG 2222/2224 VRB03KT =
TAF LEZL 220800Z 2209/2309 VRB03KT CAVOK TX38/2216Z TN23/2305Z BECMG 2216/2219 21011KT BECMG 2300/2302 VRB03KT =
TAF AMD LEAM 221018Z 2210/2309 08022KT CAVOK TX37/2214Z TN25/2305Z PROB40 TEMPO 2210/2219 06024G34KT BECMG 2219/2222 33009KT BECMG 2307/2309 08018KT =
TAF LEBA 220800Z 2209/2218 VRB02KT CAVOK BECMG 2216/2218 26010KT =
TAF LEJR 220500Z 2206/2306 06006KT CAVOK TX38/2214Z TN22/2206Z BECMG 2210/2213 16010KT BECMG 2215/2217 25010KT BECMG 2218/2221 VRB02KT =
TAF GEML 220800Z 2209/2309 05006KT 9999 SCT020 TX28/2215Z TN24/2305Z TEMPO 2209/2213 SCT008 BKN012 =
TAF LXGB 220721Z 2209/2218 08012KT 9999 FEW012 TEMPO 2209/2212 BKN012 PROB30 TEMPO 2209/2210 6000 HZ BKN006 TEMPO 2215/2218 BKN012 =

Recuerde que, aunque regularmente actualizada, la información meteorológica aquí presentada no debe ser utilizada para la planificación de vuelos. Si lo desea, puede consultar la información meteorológica adecuada, tanto de aeródromos como en ruta, por las vías oficialmente establecidas en la legislación -> AQUí

Utilizamos "cookies" propias y de terceros para analizar nuestros servicios, medir las audiencias, personalizar el contenido que ofrecemos y mostrar información adaptada a sus intereses mediante la obtención de los datos necesarios para perfilar sus hábitos de navegación e inferir grupos de interés, siempre de modo anónimo. Si continúa utilizando el sitio web AEROCLUBMALAGA.COM, significa que acepta sus términos y condiciones y el uso de "cookies" al utilizar el sitio web y nuestros servicios. Asimismo, podemos utilizar fuentes de datos externas para elaborar estos grupos de interés, así compartir los análisis de navegación y los grupos de interés inferidos con terceros con el objetivo de personalizar los contenidos. Para obtener más información sobre las cookies que utilizamos y cómo eliminarlas, consulte nuestra política de privacidad.

Acepto las cookies de esta página web.
EU Cookie Directive plugin by www.channeldigital.co.uk